sensor_id;sensor_type;location;lat;lon;timestamp;P1;durP1;ratioP1;P2;durP2;ratioP2
80123;SDS011;69433;48.642;9.142;2024-03-25T00:00:08;25.02;;;12.20;;
80123;SDS011;69433;48.642;9.142;2024-03-25T00:02:37;25.27;;;13.40;;
80123;SDS011;69433;48.642;9.142;2024-03-25T00:05:04;24.45;;;12.80;;
80123;SDS011;69433;48.642;9.142;2024-03-25T00:07:30;23.77;;;12.82;;
80123;SDS011;69433;48.642;9.142;2024-03-25T00:12:28;21.70;;;11.85;;
80123;SDS011;69433;48.642;9.142;2024-03-25T00:14:54;24.05;;;12.38;;
80123;SDS011;69433;48.642;9.142;2024-03-25T00:17:19;25.80;;;13.55;;
80123;SDS011;69433;48.642;9.142;2024-03-25T00:19:47;23.52;;;12.73;;
80123;SDS011;69433;48.642;9.142;2024-03-25T00:22:16;22.83;;;11.80;;
80123;SDS011;69433;48.642;9.142;2024-03-25T00:24:42;22.95;;;12.20;;
80123;SDS011;69433;48.642;9.142;2024-03-25T00:27:07;23.83;;;11.50;;
80123;SDS011;69433;48.642;9.142;2024-03-25T00:29:35;21.38;;;12.18;;
80123;SDS011;69433;48.642;9.142;2024-03-25T00:32:00;22.02;;;11.32;;
80123;SDS011;69433;48.642;9.142;2024-03-25T00:34:25;19.70;;;11.60;;
80123;SDS011;69433;48.642;9.142;2024-03-25T00:36:51;23.88;;;11.63;;
80123;SDS011;69433;48.642;9.142;2024-03-25T00:39:16;25.75;;;12.10;;
80123;SDS011;69433;48.642;9.142;2024-03-25T00:41:48;20.52;;;10.93;;
80123;SDS011;69433;48.642;9.142;2024-03-25T00:44:13;20.48;;;11.88;;
80123;SDS011;69433;48.642;9.142;2024-03-25T00:46:39;20.98;;;10.40;;
80123;SDS011;69433;48.642;9.142;2024-03-25T00:49:06;18.85;;;10.60;;
80123;SDS011;69433;48.642;9.142;2024-03-25T00:51:32;22.40;;;10.98;;
80123;SDS011;69433;48.642;9.142;2024-03-25T00:53:57;19.67;;;11.40;;
80123;SDS011;69433;48.642;9.142;2024-03-25T00:56:23;19.30;;;10.60;;
80123;SDS011;69433;48.642;9.142;2024-03-25T00:58:48;18.88;;;10.60;;
80123;SDS011;69433;48.642;9.142;2024-03-25T01:04:04;19.60;;;10.80;;
80123;SDS011;69433;48.642;9.142;2024-03-25T01:06:29;19.15;;;10.18;;
80123;SDS011;69433;48.642;9.142;2024-03-25T01:08:55;20.42;;;10.30;;
80123;SDS011;69433;48.642;9.142;2024-03-25T01:11:20;17.52;;;9.93;;
80123;SDS011;69433;48.642;9.142;2024-03-25T01:13:46;19.77;;;10.23;;
80123;SDS011;69433;48.642;9.142;2024-03-25T01:16:12;19.52;;;9.63;;
80123;SDS011;69433;48.642;9.142;2024-03-25T01:18:37;19.05;;;9.93;;
80123;SDS011;69433;48.642;9.142;2024-03-25T01:21:02;16.45;;;9.73;;
80123;SDS011;69433;48.642;9.142;2024-03-25T01:23:28;18.80;;;9.60;;
80123;SDS011;69433;48.642;9.142;2024-03-25T01:25:53;17.92;;;10.02;;
80123;SDS011;69433;48.642;9.142;2024-03-25T01:28:19;19.27;;;10.32;;
80123;SDS011;69433;48.642;9.142;2024-03-25T01:30:45;17.45;;;9.20;;
80123;SDS011;69433;48.642;9.142;2024-03-25T01:33:10;16.23;;;9.30;;
80123;SDS011;69433;48.642;9.142;2024-03-25T01:35:40;17.23;;;9.20;;
80123;SDS011;69433;48.642;9.142;2024-03-25T01:38:06;17.92;;;9.85;;
80123;SDS011;69433;48.642;9.142;2024-03-25T01:40:32;17.50;;;9.35;;
80123;SDS011;69433;48.642;9.142;2024-03-25T01:42:59;16.38;;;9.05;;
80123;SDS011;69433;48.642;9.142;2024-03-25T01:45:27;15.73;;;8.75;;
80123;SDS011;69433;48.642;9.142;2024-03-25T01:48:07;15.60;;;8.38;;
80123;SDS011;69433;48.642;9.142;2024-03-25T01:50:44;17.08;;;9.65;;
80123;SDS011;69433;48.642;9.142;2024-03-25T01:53:11;14.88;;;8.68;;
80123;SDS011;69433;48.642;9.142;2024-03-25T01:55:38;16.33;;;9.32;;
80123;SDS011;69433;48.642;9.142;2024-03-25T01:58:04;14.93;;;8.48;;
80123;SDS011;69433;48.642;9.142;2024-03-25T02:00:35;16.35;;;8.95;;
80123;SDS011;69433;48.642;9.142;2024-03-25T02:03:02;13.50;;;8.35;;
80123;SDS011;69433;48.642;9.142;2024-03-25T02:05:28;15.82;;;8.95;;
80123;SDS011;69433;48.642;9.142;2024-03-25T02:07:53;16.42;;;8.20;;
80123;SDS011;69433;48.642;9.142;2024-03-25T02:10:39;15.95;;;8.40;;
80123;SDS011;69433;48.642;9.142;2024-03-25T02:13:06;14.43;;;8.13;;
80123;SDS011;69433;48.642;9.142;2024-03-25T02:15:32;16.20;;;8.45;;
80123;SDS011;69433;48.642;9.142;2024-03-25T02:17:58;14.20;;;8.57;;
80123;SDS011;69433;48.642;9.142;2024-03-25T02:20:24;14.43;;;8.35;;
80123;SDS011;69433;48.642;9.142;2024-03-25T02:22:51;14.48;;;7.68;;
80123;SDS011;69433;48.642;9.142;2024-03-25T02:25:20;15.07;;;7.85;;
80123;SDS011;69433;48.642;9.142;2024-03-25T02:27:47;15.23;;;7.85;;
80123;SDS011;69433;48.642;9.142;2024-03-25T02:30:13;13.77;;;8.25;;
80123;SDS011;69433;48.642;9.142;2024-03-25T02:32:39;13.43;;;7.60;;
80123;SDS011;69433;48.642;9.142;2024-03-25T02:35:07;15.15;;;7.68;;
80123;SDS011;69433;48.642;9.142;2024-03-25T02:40:36;12.73;;;7.18;;
80123;SDS011;69433;48.642;9.142;2024-03-25T02:43:03;13.23;;;7.60;;
80123;SDS011;69433;48.642;9.142;2024-03-25T02:45:29;15.82;;;7.75;;
80123;SDS011;69433;48.642;9.142;2024-03-25T02:47:54;12.32;;;6.80;;
80123;SDS011;69433;48.642;9.142;2024-03-25T02:50:20;13.48;;;7.55;;
80123;SDS011;69433;48.642;9.142;2024-03-25T02:52:46;13.27;;;7.55;;
80123;SDS011;69433;48.642;9.142;2024-03-25T02:55:11;13.57;;;7.05;;
80123;SDS011;69433;48.642;9.142;2024-03-25T02:57:37;13.30;;;7.30;;
80123;SDS011;69433;48.642;9.142;2024-03-25T03:00:03;12.07;;;6.55;;
80123;SDS011;69433;48.642;9.142;2024-03-25T03:02:29;11.75;;;6.57;;
80123;SDS011;69433;48.642;9.142;2024-03-25T03:04:55;13.15;;;6.97;;
80123;SDS011;69433;48.642;9.142;2024-03-25T03:07:20;14.43;;;7.20;;
80123;SDS011;69433;48.642;9.142;2024-03-25T03:12:34;11.43;;;6.47;;
80123;SDS011;69433;48.642;9.142;2024-03-25T03:15:00;13.00;;;6.85;;
80123;SDS011;69433;48.642;9.142;2024-03-25T03:17:25;12.77;;;6.72;;
80123;SDS011;69433;48.642;9.142;2024-03-25T03:19:51;11.90;;;6.32;;
80123;SDS011;69433;48.642;9.142;2024-03-25T03:22:16;12.00;;;6.97;;
80123;SDS011;69433;48.642;9.142;2024-03-25T03:24:41;11.35;;;6.93;;
80123;SDS011;69433;48.642;9.142;2024-03-25T03:27:07;13.25;;;6.57;;
80123;SDS011;69433;48.642;9.142;2024-03-25T03:29:32;12.52;;;6.78;;
80123;SDS011;69433;48.642;9.142;2024-03-25T03:31:58;11.60;;;6.28;;
80123;SDS011;69433;48.642;9.142;2024-03-25T03:34:23;11.88;;;6.95;;
80123;SDS011;69433;48.642;9.142;2024-03-25T03:36:49;11.00;;;6.18;;
80123;SDS011;69433;48.642;9.142;2024-03-25T03:39:15;9.55;;;5.70;;
80123;SDS011;69433;48.642;9.142;2024-03-25T03:41:40;12.43;;;7.18;;
80123;SDS011;69433;48.642;9.142;2024-03-25T03:44:18;10.88;;;5.68;;
80123;SDS011;69433;48.642;9.142;2024-03-25T03:46:43;10.63;;;6.07;;
80123;SDS011;69433;48.642;9.142;2024-03-25T03:49:08;9.95;;;6.10;;
80123;SDS011;69433;48.642;9.142;2024-03-25T03:51:33;11.65;;;6.45;;
80123;SDS011;69433;48.642;9.142;2024-03-25T03:53:59;10.25;;;5.88;;
80123;SDS011;69433;48.642;9.142;2024-03-25T03:56:24;9.40;;;5.57;;
80123;SDS011;69433;48.642;9.142;2024-03-25T03:58:49;11.68;;;5.70;;
80123;SDS011;69433;48.642;9.142;2024-03-25T04:01:15;9.55;;;5.57;;
80123;SDS011;69433;48.642;9.142;2024-03-25T04:03:41;10.10;;;6.00;;
80123;SDS011;69433;48.642;9.142;2024-03-25T04:06:13;9.48;;;5.63;;
80123;SDS011;69433;48.642;9.142;2024-03-25T04:08:39;9.20;;;5.05;;
80123;SDS011;69433;48.642;9.142;2024-03-25T04:11:05;9.90;;;5.72;;
80123;SDS011;69433;48.642;9.142;2024-03-25T04:13:31;9.65;;;6.30;;
80123;SDS011;69433;48.642;9.142;2024-03-25T04:16:03;8.45;;;5.05;;
80123;SDS011;69433;48.642;9.142;2024-03-25T04:18:30;10.10;;;5.68;;
80123;SDS011;69433;48.642;9.142;2024-03-25T04:20:56;10.40;;;5.80;;
80123;SDS011;69433;48.642;9.142;2024-03-25T04:23:22;9.63;;;5.50;;
80123;SDS011;69433;48.642;9.142;2024-03-25T04:25:47;9.18;;;4.97;;
80123;SDS011;69433;48.642;9.142;2024-03-25T04:28:13;9.00;;;5.10;;
80123;SDS011;69433;48.642;9.142;2024-03-25T04:30:38;10.07;;;5.65;;
80123;SDS011;69433;48.642;9.142;2024-03-25T04:33:04;8.52;;;4.90;;
80123;SDS011;69433;48.642;9.142;2024-03-25T04:35:29;9.27;;;5.65;;
80123;SDS011;69433;48.642;9.142;2024-03-25T04:37:54;8.85;;;5.20;;
80123;SDS011;69433;48.642;9.142;2024-03-25T04:40:33;9.15;;;4.78;;
80123;SDS011;69433;48.642;9.142;2024-03-25T04:42:59;8.55;;;4.78;;
80123;SDS011;69433;48.642;9.142;2024-03-25T04:45:24;8.20;;;4.88;;
80123;SDS011;69433;48.642;9.142;2024-03-25T04:47:49;8.60;;;5.10;;
80123;SDS011;69433;48.642;9.142;2024-03-25T04:50:14;7.97;;;5.03;;
80123;SDS011;69433;48.642;9.142;2024-03-25T04:52:40;8.90;;;4.97;;
80123;SDS011;69433;48.642;9.142;2024-03-25T04:55:05;9.02;;;4.80;;
80123;SDS011;69433;48.642;9.142;2024-03-25T04:57:31;7.82;;;4.95;;
80123;SDS011;69433;48.642;9.142;2024-03-25T04:59:56;9.07;;;4.70;;
80123;SDS011;69433;48.642;9.142;2024-03-25T05:02:23;7.63;;;4.45;;
80123;SDS011;69433;48.642;9.142;2024-03-25T05:04:48;9.27;;;4.57;;
80123;SDS011;69433;48.642;9.142;2024-03-25T05:07:14;7.85;;;4.60;;
80123;SDS011;69433;48.642;9.142;2024-03-25T05:09:39;8.85;;;5.20;;
80123;SDS011;69433;48.642;9.142;2024-03-25T05:12:05;7.40;;;4.57;;
80123;SDS011;69433;48.642;9.142;2024-03-25T05:17:33;6.72;;;4.40;;
80123;SDS011;69433;48.642;9.142;2024-03-25T05:19:58;10.45;;;5.47;;
80123;SDS011;69433;48.642;9.142;2024-03-25T05:22:24;7.18;;;4.50;;
80123;SDS011;69433;48.642;9.142;2024-03-25T05:24:50;7.43;;;4.60;;
80123;SDS011;69433;48.642;9.142;2024-03-25T05:27:15;8.50;;;4.88;;
80123;SDS011;69433;48.642;9.142;2024-03-25T05:29:41;7.45;;;4.18;;
80123;SDS011;69433;48.642;9.142;2024-03-25T05:32:06;7.00;;;4.20;;
80123;SDS011;69433;48.642;9.142;2024-03-25T05:34:31;7.30;;;4.22;;
80123;SDS011;69433;48.642;9.142;2024-03-25T05:36:57;7.90;;;3.95;;
80123;SDS011;69433;48.642;9.142;2024-03-25T05:39:22;6.05;;;3.95;;
80123;SDS011;69433;48.642;9.142;2024-03-25T05:41:47;6.97;;;4.38;;
80123;SDS011;69433;48.642;9.142;2024-03-25T05:44:13;6.35;;;4.25;;
80123;SDS011;69433;48.642;9.142;2024-03-25T05:46:39;7.85;;;4.78;;
80123;SDS011;69433;48.642;9.142;2024-03-25T05:51:49;8.32;;;4.15;;
80123;SDS011;69433;48.642;9.142;2024-03-25T05:54:15;7.80;;;4.43;;
80123;SDS011;69433;48.642;9.142;2024-03-25T05:56:40;6.70;;;4.03;;
80123;SDS011;69433;48.642;9.142;2024-03-25T05:59:06;7.30;;;4.30;;
80123;SDS011;69433;48.642;9.142;2024-03-25T06:01:31;6.20;;;3.95;;
80123;SDS011;69433;48.642;9.142;2024-03-25T06:07:02;8.10;;;3.88;;
80123;SDS011;69433;48.642;9.142;2024-03-25T06:09:27;7.18;;;4.07;;
80123;SDS011;69433;48.642;9.142;2024-03-25T06:11:52;7.32;;;4.20;;
80123;SDS011;69433;48.642;9.142;2024-03-25T06:14:17;7.70;;;4.15;;
80123;SDS011;69433;48.642;9.142;2024-03-25T06:16:49;7.43;;;3.80;;
80123;SDS011;69433;48.642;9.142;2024-03-25T06:19:14;6.25;;;3.53;;
80123;SDS011;69433;48.642;9.142;2024-03-25T06:21:40;7.00;;;3.83;;
80123;SDS011;69433;48.642;9.142;2024-03-25T06:24:06;6.63;;;3.88;;
80123;SDS011;69433;48.642;9.142;2024-03-25T06:26:32;6.38;;;3.70;;
80123;SDS011;69433;48.642;9.142;2024-03-25T06:29:06;7.28;;;4.03;;
80123;SDS011;69433;48.642;9.142;2024-03-25T06:31:31;6.38;;;3.95;;
80123;SDS011;69433;48.642;9.142;2024-03-25T06:34:15;6.68;;;3.83;;
80123;SDS011;69433;48.642;9.142;2024-03-25T06:36:46;6.38;;;3.80;;
80123;SDS011;69433;48.642;9.142;2024-03-25T06:39:13;7.68;;;3.88;;
80123;SDS011;69433;48.642;9.142;2024-03-25T06:41:39;6.32;;;3.45;;
80123;SDS011;69433;48.642;9.142;2024-03-25T06:44:04;5.55;;;3.85;;
80123;SDS011;69433;48.642;9.142;2024-03-25T06:46:30;5.35;;;3.38;;
80123;SDS011;69433;48.642;9.142;2024-03-25T06:48:55;5.65;;;3.17;;
80123;SDS011;69433;48.642;9.142;2024-03-25T06:51:20;6.47;;;3.58;;
80123;SDS011;69433;48.642;9.142;2024-03-25T06:53:46;5.07;;;3.47;;
80123;SDS011;69433;48.642;9.142;2024-03-25T06:56:11;5.28;;;3.25;;
80123;SDS011;69433;48.642;9.142;2024-03-25T07:01:36;7.10;;;3.42;;
80123;SDS011;69433;48.642;9.142;2024-03-25T07:07:23;7.70;;;3.33;;
80123;SDS011;69433;48.642;9.142;2024-03-25T07:09:49;5.45;;;3.33;;
80123;SDS011;69433;48.642;9.142;2024-03-25T07:12:14;7.05;;;3.22;;
80123;SDS011;69433;48.642;9.142;2024-03-25T07:14:39;6.47;;;3.17;;
80123;SDS011;69433;48.642;9.142;2024-03-25T07:17:06;5.85;;;3.50;;
80123;SDS011;69433;48.642;9.142;2024-03-25T07:19:31;5.53;;;3.20;;
80123;SDS011;69433;48.642;9.142;2024-03-25T07:21:57;6.35;;;3.53;;
80123;SDS011;69433;48.642;9.142;2024-03-25T07:24:23;6.38;;;3.25;;
80123;SDS011;69433;48.642;9.142;2024-03-25T07:26:48;6.03;;;3.42;;
80123;SDS011;69433;48.642;9.142;2024-03-25T07:29:13;5.25;;;3.17;;
80123;SDS011;69433;48.642;9.142;2024-03-25T07:31:39;5.93;;;3.20;;
80123;SDS011;69433;48.642;9.142;2024-03-25T07:34:20;5.18;;;2.80;;
80123;SDS011;69433;48.642;9.142;2024-03-25T07:36:45;6.40;;;3.53;;
80123;SDS011;69433;48.642;9.142;2024-03-25T07:39:10;5.07;;;3.03;;
80123;SDS011;69433;48.642;9.142;2024-03-25T07:41:36;4.07;;;2.67;;
80123;SDS011;69433;48.642;9.142;2024-03-25T07:44:04;4.25;;;2.67;;
80123;SDS011;69433;48.642;9.142;2024-03-25T07:46:29;4.32;;;2.70;;
80123;SDS011;69433;48.642;9.142;2024-03-25T07:48:55;5.30;;;2.35;;
80123;SDS011;69433;48.642;9.142;2024-03-25T07:51:32;5.32;;;2.75;;
80123;SDS011;69433;48.642;9.142;2024-03-25T07:54:00;4.03;;;2.47;;
80123;SDS011;69433;48.642;9.142;2024-03-25T07:56:25;5.22;;;2.58;;
80123;SDS011;69433;48.642;9.142;2024-03-25T07:58:51;4.38;;;2.45;;
80123;SDS011;69433;48.642;9.142;2024-03-25T08:01:18;4.43;;;2.63;;
80123;SDS011;69433;48.642;9.142;2024-03-25T08:03:43;4.55;;;2.47;;
80123;SDS011;69433;48.642;9.142;2024-03-25T08:06:08;4.13;;;2.53;;
80123;SDS011;69433;48.642;9.142;2024-03-25T08:08:34;5.15;;;2.58;;
80123;SDS011;69433;48.642;9.142;2024-03-25T08:10:59;5.10;;;2.65;;
80123;SDS011;69433;48.642;9.142;2024-03-25T08:13:24;3.83;;;2.28;;
80123;SDS011;69433;48.642;9.142;2024-03-25T08:15:51;3.22;;;2.40;;
80123;SDS011;69433;48.642;9.142;2024-03-25T08:18:17;5.30;;;2.85;;
80123;SDS011;69433;48.642;9.142;2024-03-25T08:20:42;4.75;;;2.42;;
80123;SDS011;69433;48.642;9.142;2024-03-25T08:23:07;3.80;;;2.60;;
80123;SDS011;69433;48.642;9.142;2024-03-25T08:25:33;3.85;;;2.45;;
80123;SDS011;69433;48.642;9.142;2024-03-25T08:27:58;3.25;;;2.20;;
80123;SDS011;69433;48.642;9.142;2024-03-25T08:30:24;4.80;;;2.42;;
80123;SDS011;69433;48.642;9.142;2024-03-25T08:32:50;4.53;;;2.30;;
80123;SDS011;69433;48.642;9.142;2024-03-25T08:35:19;5.35;;;2.50;;
80123;SDS011;69433;48.642;9.142;2024-03-25T08:37:44;6.22;;;2.63;;
80123;SDS011;69433;48.642;9.142;2024-03-25T08:40:10;4.63;;;2.20;;
80123;SDS011;69433;48.642;9.142;2024-03-25T08:42:35;3.63;;;2.17;;
80123;SDS011;69433;48.642;9.142;2024-03-25T08:45:01;3.78;;;2.17;;
80123;SDS011;69433;48.642;9.142;2024-03-25T08:47:26;5.65;;;2.30;;
80123;SDS011;69433;48.642;9.142;2024-03-25T08:50:06;5.43;;;2.53;;
80123;SDS011;69433;48.642;9.142;2024-03-25T08:52:32;6.35;;;2.03;;
80123;SDS011;69433;48.642;9.142;2024-03-25T08:54:57;3.97;;;2.20;;
80123;SDS011;69433;48.642;9.142;2024-03-25T08:57:22;4.40;;;2.28;;
80123;SDS011;69433;48.642;9.142;2024-03-25T08:59:48;5.50;;;2.47;;
80123;SDS011;69433;48.642;9.142;2024-03-25T09:02:14;4.47;;;1.92;;
80123;SDS011;69433;48.642;9.142;2024-03-25T09:04:39;5.85;;;2.03;;
80123;SDS011;69433;48.642;9.142;2024-03-25T09:10:27;4.05;;;1.80;;
80123;SDS011;69433;48.642;9.142;2024-03-25T09:13:12;5.55;;;2.83;;
80123;SDS011;69433;48.642;9.142;2024-03-25T09:15:38;11.50;;;3.08;;
80123;SDS011;69433;48.642;9.142;2024-03-25T09:18:03;8.88;;;2.50;;
80123;SDS011;69433;48.642;9.142;2024-03-25T09:20:29;4.60;;;2.50;;
80123;SDS011;69433;48.642;9.142;2024-03-25T09:22:54;5.97;;;3.17;;
80123;SDS011;69433;48.642;9.142;2024-03-25T09:28:23;5.45;;;2.75;;
80123;SDS011;69433;48.642;9.142;2024-03-25T09:30:48;6.85;;;3.08;;
80123;SDS011;69433;48.642;9.142;2024-03-25T09:33:14;5.20;;;2.42;;
80123;SDS011;69433;48.642;9.142;2024-03-25T09:35:40;4.65;;;2.40;;
80123;SDS011;69433;48.642;9.142;2024-03-25T09:38:05;7.53;;;2.53;;
80123;SDS011;69433;48.642;9.142;2024-03-25T09:40:30;5.05;;;2.72;;
80123;SDS011;69433;48.642;9.142;2024-03-25T09:42:56;4.60;;;2.13;;
80123;SDS011;69433;48.642;9.142;2024-03-25T09:45:24;5.35;;;2.20;;
80123;SDS011;69433;48.642;9.142;2024-03-25T09:47:50;7.75;;;3.05;;
80123;SDS011;69433;48.642;9.142;2024-03-25T09:50:19;4.53;;;2.30;;
80123;SDS011;69433;48.642;9.142;2024-03-25T09:55:37;4.25;;;2.15;;
80123;SDS011;69433;48.642;9.142;2024-03-25T09:58:03;7.43;;;2.65;;
80123;SDS011;69433;48.642;9.142;2024-03-25T10:00:30;4.55;;;2.22;;
80123;SDS011;69433;48.642;9.142;2024-03-25T10:06:02;5.32;;;2.60;;
80123;SDS011;69433;48.642;9.142;2024-03-25T10:08:30;5.25;;;2.30;;
80123;SDS011;69433;48.642;9.142;2024-03-25T10:10:56;7.15;;;2.15;;
80123;SDS011;69433;48.642;9.142;2024-03-25T10:13:24;4.13;;;2.00;;
80123;SDS011;69433;48.642;9.142;2024-03-25T10:18:16;4.67;;;2.30;;
80123;SDS011;69433;48.642;9.142;2024-03-25T10:20:55;4.78;;;2.10;;
80123;SDS011;69433;48.642;9.142;2024-03-25T10:23:24;5.50;;;2.40;;
80123;SDS011;69433;48.642;9.142;2024-03-25T10:25:53;6.15;;;2.47;;
80123;SDS011;69433;48.642;9.142;2024-03-25T10:28:19;4.80;;;2.00;;
80123;SDS011;69433;48.642;9.142;2024-03-25T10:30:44;4.88;;;2.45;;
80123;SDS011;69433;48.642;9.142;2024-03-25T10:33:10;6.72;;;2.30;;
80123;SDS011;69433;48.642;9.142;2024-03-25T10:35:36;6.80;;;2.30;;
80123;SDS011;69433;48.642;9.142;2024-03-25T10:38:06;5.15;;;2.30;;
80123;SDS011;69433;48.642;9.142;2024-03-25T10:43:24;3.78;;;2.00;;
80123;SDS011;69433;48.642;9.142;2024-03-25T10:45:54;5.75;;;2.05;;
80123;SDS011;69433;48.642;9.142;2024-03-25T10:51:08;6.30;;;1.90;;
80123;SDS011;69433;48.642;9.142;2024-03-25T10:56:54;3.60;;;2.10;;
80123;SDS011;69433;48.642;9.142;2024-03-25T10:59:21;5.93;;;2.17;;
80123;SDS011;69433;48.642;9.142;2024-03-25T11:04:59;4.72;;;2.15;;
80123;SDS011;69433;48.642;9.142;2024-03-25T11:07:30;4.75;;;2.15;;
80123;SDS011;69433;48.642;9.142;2024-03-25T11:10:02;4.45;;;1.88;;
80123;SDS011;69433;48.642;9.142;2024-03-25T11:12:36;4.45;;;1.80;;
80123;SDS011;69433;48.642;9.142;2024-03-25T11:18:00;5.68;;;2.25;;
80123;SDS011;69433;48.642;9.142;2024-03-25T11:20:26;3.97;;;1.88;;
80123;SDS011;69433;48.642;9.142;2024-03-25T11:22:53;5.90;;;2.10;;
80123;SDS011;69433;48.642;9.142;2024-03-25T11:25:20;4.55;;;2.20;;
80123;SDS011;69433;48.642;9.142;2024-03-25T11:27:46;6.10;;;2.30;;
80123;SDS011;69433;48.642;9.142;2024-03-25T11:30:12;4.03;;;1.90;;
80123;SDS011;69433;48.642;9.142;2024-03-25T11:35:16;4.78;;;2.15;;
80123;SDS011;69433;48.642;9.142;2024-03-25T11:37:52;5.75;;;2.20;;
80123;SDS011;69433;48.642;9.142;2024-03-25T11:40:18;9.52;;;2.20;;
80123;SDS011;69433;48.642;9.142;2024-03-25T11:42:44;5.28;;;2.20;;
80123;SDS011;69433;48.642;9.142;2024-03-25T11:45:14;6.55;;;2.10;;
80123;SDS011;69433;48.642;9.142;2024-03-25T11:47:44;5.25;;;2.22;;
80123;SDS011;69433;48.642;9.142;2024-03-25T11:50:12;7.22;;;2.25;;
80123;SDS011;69433;48.642;9.142;2024-03-25T11:52:39;6.00;;;2.08;;
80123;SDS011;69433;48.642;9.142;2024-03-25T11:55:05;5.88;;;2.10;;
80123;SDS011;69433;48.642;9.142;2024-03-25T11:57:30;5.78;;;2.17;;
80123;SDS011;69433;48.642;9.142;2024-03-25T11:59:57;8.60;;;1.92;;
80123;SDS011;69433;48.642;9.142;2024-03-25T12:02:23;5.13;;;2.13;;
80123;SDS011;69433;48.642;9.142;2024-03-25T12:04:48;6.18;;;2.05;;
80123;SDS011;69433;48.642;9.142;2024-03-25T12:07:14;15.05;;;2.47;;
80123;SDS011;69433;48.642;9.142;2024-03-25T12:09:40;6.88;;;2.13;;
80123;SDS011;69433;48.642;9.142;2024-03-25T12:12:26;5.45;;;1.95;;
80123;SDS011;69433;48.642;9.142;2024-03-25T12:14:51;5.45;;;2.00;;
80123;SDS011;69433;48.642;9.142;2024-03-25T12:17:20;3.50;;;2.10;;
80123;SDS011;69433;48.642;9.142;2024-03-25T12:22:29;4.47;;;1.83;;
80123;SDS011;69433;48.642;9.142;2024-03-25T12:24:57;5.40;;;1.90;;
80123;SDS011;69433;48.642;9.142;2024-03-25T12:27:23;3.50;;;1.83;;
80123;SDS011;69433;48.642;9.142;2024-03-25T12:30:05;3.90;;;1.90;;
80123;SDS011;69433;48.642;9.142;2024-03-25T12:35:01;6.40;;;2.13;;
80123;SDS011;69433;48.642;9.142;2024-03-25T12:37:26;3.95;;;1.85;;
80123;SDS011;69433;48.642;9.142;2024-03-25T12:39:51;3.53;;;1.67;;
80123;SDS011;69433;48.642;9.142;2024-03-25T12:42:17;4.65;;;1.92;;
80123;SDS011;69433;48.642;9.142;2024-03-25T12:44:46;4.95;;;1.95;;
80123;SDS011;69433;48.642;9.142;2024-03-25T12:47:11;3.17;;;1.85;;
80123;SDS011;69433;48.642;9.142;2024-03-25T12:52:58;5.18;;;1.98;;
80123;SDS011;69433;48.642;9.142;2024-03-25T12:55:24;3.72;;;1.70;;
80123;SDS011;69433;48.642;9.142;2024-03-25T12:57:49;5.28;;;2.10;;
80123;SDS011;69433;48.642;9.142;2024-03-25T13:00:14;3.85;;;1.75;;
80123;SDS011;69433;48.642;9.142;2024-03-25T13:05:31;5.32;;;1.80;;
80123;SDS011;69433;48.642;9.142;2024-03-25T13:10:46;5.28;;;1.80;;
80123;SDS011;69433;48.642;9.142;2024-03-25T13:13:11;4.47;;;1.90;;
80123;SDS011;69433;48.642;9.142;2024-03-25T13:18:22;3.90;;;1.73;;
80123;SDS011;69433;48.642;9.142;2024-03-25T13:23:36;4.40;;;1.90;;
80123;SDS011;69433;48.642;9.142;2024-03-25T13:26:01;4.25;;;1.75;;
80123;SDS011;69433;48.642;9.142;2024-03-25T13:31:27;3.72;;;1.50;;
80123;SDS011;69433;48.642;9.142;2024-03-25T13:33:52;3.97;;;1.80;;
80123;SDS011;69433;48.642;9.142;2024-03-25T13:36:18;3.33;;;1.70;;
80123;SDS011;69433;48.642;9.142;2024-03-25T13:38:43;5.75;;;1.80;;
80123;SDS011;69433;48.642;9.142;2024-03-25T13:41:09;4.38;;;1.63;;
80123;SDS011;69433;48.642;9.142;2024-03-25T13:43:34;3.28;;;1.65;;
80123;SDS011;69433;48.642;9.142;2024-03-25T13:45:59;4.95;;;1.70;;
80123;SDS011;69433;48.642;9.142;2024-03-25T13:48:25;3.72;;;1.92;;
80123;SDS011;69433;48.642;9.142;2024-03-25T13:50:52;4.45;;;1.70;;
80123;SDS011;69433;48.642;9.142;2024-03-25T13:53:19;3.75;;;1.40;;
80123;SDS011;69433;48.642;9.142;2024-03-25T13:55:44;2.53;;;1.73;;
80123;SDS011;69433;48.642;9.142;2024-03-25T13:58:10;3.53;;;1.70;;
80123;SDS011;69433;48.642;9.142;2024-03-25T14:00:35;6.65;;;1.70;;
80123;SDS011;69433;48.642;9.142;2024-03-25T14:03:01;6.85;;;1.75;;
80123;SDS011;69433;48.642;9.142;2024-03-25T14:05:27;4.75;;;1.70;;
80123;SDS011;69433;48.642;9.142;2024-03-25T14:07:52;3.92;;;1.60;;
80123;SDS011;69433;48.642;9.142;2024-03-25T14:13:08;2.72;;;1.50;;
80123;SDS011;69433;48.642;9.142;2024-03-25T14:15:33;5.22;;;1.60;;
80123;SDS011;69433;48.642;9.142;2024-03-25T14:17:58;5.10;;;1.60;;
80123;SDS011;69433;48.642;9.142;2024-03-25T14:20:23;6.28;;;1.80;;
80123;SDS011;69433;48.642;9.142;2024-03-25T14:22:49;4.40;;;1.63;;
80123;SDS011;69433;48.642;9.142;2024-03-25T14:25:14;5.72;;;1.83;;
80123;SDS011;69433;48.642;9.142;2024-03-25T14:30:37;4.53;;;1.60;;
80123;SDS011;69433;48.642;9.142;2024-03-25T14:33:02;4.05;;;1.70;;
80123;SDS011;69433;48.642;9.142;2024-03-25T14:35:27;3.25;;;1.70;;
80123;SDS011;69433;48.642;9.142;2024-03-25T14:37:53;4.47;;;1.65;;
80123;SDS011;69433;48.642;9.142;2024-03-25T14:40:18;5.53;;;1.85;;
80123;SDS011;69433;48.642;9.142;2024-03-25T14:42:43;2.70;;;1.38;;
80123;SDS011;69433;48.642;9.142;2024-03-25T14:45:09;2.72;;;1.40;;
80123;SDS011;69433;48.642;9.142;2024-03-25T14:47:34;3.25;;;1.48;;
80123;SDS011;69433;48.642;9.142;2024-03-25T14:49:59;4.57;;;1.77;;
80123;SDS011;69433;48.642;9.142;2024-03-25T14:52:24;4.50;;;1.50;;
80123;SDS011;69433;48.642;9.142;2024-03-25T14:54:50;4.65;;;1.67;;
80123;SDS011;69433;48.642;9.142;2024-03-25T15:00:27;2.42;;;1.48;;
80123;SDS011;69433;48.642;9.142;2024-03-25T15:02:53;3.78;;;1.70;;
80123;SDS011;69433;48.642;9.142;2024-03-25T15:05:18;2.45;;;1.40;;
80123;SDS011;69433;48.642;9.142;2024-03-25T15:07:45;4.53;;;1.50;;
80123;SDS011;69433;48.642;9.142;2024-03-25T15:10:10;2.90;;;1.38;;
80123;SDS011;69433;48.642;9.142;2024-03-25T15:15:57;3.75;;;1.63;;
80123;SDS011;69433;48.642;9.142;2024-03-25T15:18:22;4.05;;;1.63;;
80123;SDS011;69433;48.642;9.142;2024-03-25T15:20:58;2.60;;;1.42;;
80123;SDS011;69433;48.642;9.142;2024-03-25T15:23:24;2.88;;;1.40;;
80123;SDS011;69433;48.642;9.142;2024-03-25T15:28:41;3.55;;;1.70;;
80123;SDS011;69433;48.642;9.142;2024-03-25T15:31:06;3.63;;;1.52;;
80123;SDS011;69433;48.642;9.142;2024-03-25T15:33:31;5.78;;;2.20;;
80123;SDS011;69433;48.642;9.142;2024-03-25T15:35:58;4.45;;;1.45;;
80123;SDS011;69433;48.642;9.142;2024-03-25T15:38:23;3.78;;;1.50;;
80123;SDS011;69433;48.642;9.142;2024-03-25T15:40:49;4.95;;;1.60;;
80123;SDS011;69433;48.642;9.142;2024-03-25T15:43:17;4.25;;;1.45;;
80123;SDS011;69433;48.642;9.142;2024-03-25T15:46:04;3.38;;;1.40;;
80123;SDS011;69433;48.642;9.142;2024-03-25T15:48:29;3.78;;;1.70;;
80123;SDS011;69433;48.642;9.142;2024-03-25T15:50:55;3.80;;;1.70;;
80123;SDS011;69433;48.642;9.142;2024-03-25T15:53:21;5.78;;;1.67;;
80123;SDS011;69433;48.642;9.142;2024-03-25T15:55:47;3.15;;;1.27;;
80123;SDS011;69433;48.642;9.142;2024-03-25T15:58:12;2.40;;;1.48;;
80123;SDS011;69433;48.642;9.142;2024-03-25T16:00:38;3.55;;;1.50;;
80123;SDS011;69433;48.642;9.142;2024-03-25T16:03:04;8.52;;;1.70;;
80123;SDS011;69433;48.642;9.142;2024-03-25T16:05:30;5.00;;;1.90;;
80123;SDS011;69433;48.642;9.142;2024-03-25T16:07:55;8.73;;;3.15;;
80123;SDS011;69433;48.642;9.142;2024-03-25T16:10:24;7.70;;;4.43;;
80123;SDS011;69433;48.642;9.142;2024-03-25T16:12:57;5.78;;;2.88;;
80123;SDS011;69433;48.642;9.142;2024-03-25T16:15:22;5.70;;;2.30;;